CheckWX is a tool to help pilots better visualize weather data.  It is not intended as a substitute for an official pre-flight weather briefing.

00:52:09 UTC

C09 METAR
Morris Municipal - James R Washburn Field Airport
Morris, Illinois, USA
Current

17 mins ago

KC09 240035Z AUTO 14005KT 10SM CLR 07/M01 A3022 RMK AO2 T00701006
Observed
Mar-24 @ 00:35 UTC
Wind
  • 140° at 5 KTS
Visibility
10 SM
Flight Rules
VFR
Cloud Levels
  • Clear skies
Temperature
C / 45°F
Dewpoint
-1°C / 30°F
Humidity
57%
Altimeter
30.22" Hg
Pressure
1023.42 hPa
Previous

37 mins ago

KC09 240015Z AUTO 16005KT 10SM CLR 08/M01 A3022 RMK AO2 T00761011
Observed
Mar-24 @ 00:15 UTC
Wind
  • 160° at 5 KTS
Visibility
10 SM
Flight Rules
VFR
Cloud Levels
  • Clear skies
Temperature
C / 46°F
Dewpoint
-1°C / 30°F
Humidity
53%
Altimeter
30.22" Hg
Pressure
1023.42 hPa
Previous

57 mins ago

KC09 232355Z AUTO 16006KT 10SM CLR 08/M01 A3023 RMK AO2 T00841009 10115 20084
Observed
Mar-23 @ 23:55 UTC
Wind
  • 160° at 6 KTS
Visibility
10 SM
Flight Rules
VFR
Cloud Levels
  • Clear skies
Temperature
C / 46°F
Dewpoint
-1°C / 30°F
Humidity
53%
Altimeter
30.23" Hg
Pressure
1023.72 hPa